KUNU/UNU METAR and TAF weather

Enter ICAO airport designator
Station Type Date Time Source
KUNU METAR 2020/03/28 15:15 UTC NOAA

KUNU 281515Z AUTO 08005KT 10SM OVC004 05/05 A2976 RMK AO2 T00500049


Station Type Date Time Source
KUNU Decoded METAR 2020/03/28 15:15 UTC NOAA

Juneau, Dodge County Airport, WI, United States (KUNU) 43-25-36N 088-42-12W
Mar 28, 2020 - 11:15 AM EDT / 2020.03.28 1515 UTC
Wind: from the E (080 degrees) at 6 MPH (5 KT):0
Visibility: 10 mile(s):0
Sky conditions: overcast
Temperature: 41.0 F (5.0 C)
Dew Point: 40.8 F (4.9 C)
Relative Humidity: 99%
Pressure (altimeter): 29.76 in. Hg (1007 hPa)
ob: KUNU 281515Z AUTO 08005KT 10SM OVC004 05/05 A2976 RMK AO2 T00500049
cycle: 15

Station Type Date Time Source
KUNU TAF UTC NOAA

Error!

Example: see airport list